createdAt,value
2023-01-24T00:00:51.481Z,27.50
2023-01-24T00:03:23.974Z,25.38
2023-01-24T00:05:51.146Z,27.70
2023-01-24T00:08:20.903Z,25.65
2023-01-24T00:10:49.138Z,26.42
2023-01-24T00:13:17.104Z,25.95
2023-01-24T00:15:44.080Z,26.13
2023-01-24T00:18:11.357Z,24.55
2023-01-24T00:20:38.397Z,26.50
2023-01-24T00:23:05.613Z,26.42
2023-01-24T00:25:32.582Z,24.52
2023-01-24T00:27:59.872Z,26.60
2023-01-24T00:30:26.775Z,26.80
2023-01-24T00:32:53.977Z,25.88
2023-01-24T00:35:21.377Z,24.88
2023-01-24T00:37:48.794Z,26.13
2023-01-24T00:40:15.988Z,25.10
2023-01-24T00:42:45.013Z,26.42
2023-01-24T00:45:11.918Z,25.90
2023-01-24T00:47:39.074Z,26.83
2023-01-24T00:50:08.557Z,27.30
2023-01-24T00:52:37.109Z,27.67
2023-01-24T00:55:04.227Z,26.17
2023-01-24T00:57:31.482Z,25.15
2023-01-24T00:59:58.516Z,25.70
2023-01-24T01:02:26.477Z,24.83
2023-01-24T01:04:53.656Z,26.85
2023-01-24T01:07:23.949Z,24.00
2023-01-24T01:09:50.874Z,26.98
2023-01-24T01:12:18.021Z,26.75
2023-01-24T01:14:44.891Z,26.30
2023-01-24T01:17:12.151Z,24.38
2023-01-24T01:19:39.446Z,25.60
2023-01-24T01:22:07.093Z,26.77
2023-01-24T01:24:34.045Z,26.83
2023-01-24T01:27:01.310Z,24.63
2023-01-24T01:29:28.926Z,27.00
2023-01-24T01:31:56.224Z,26.05
2023-01-24T01:34:23.231Z,25.88
2023-01-24T01:36:50.342Z,26.83
2023-01-24T01:39:17.246Z,24.85
2023-01-24T01:41:44.542Z,27.08
2023-01-24T01:44:44.593Z,26.13
2023-01-24T01:47:24.441Z,24.23
2023-01-24T01:50:13.126Z,25.40
2023-01-24T01:52:43.332Z,23.88
2023-01-24T01:55:17.698Z,25.05
2023-01-24T01:57:46.546Z,26.52
2023-01-24T02:00:17.222Z,25.23
2023-01-24T02:02:51.306Z,26.08
2023-01-24T02:05:23.881Z,25.85
2023-01-24T02:08:06.510Z,24.77
2023-01-24T02:10:53.581Z,26.02
2023-01-24T02:13:21.181Z,26.27
2023-01-24T02:16:04.728Z,26.13
2023-01-24T02:18:34.059Z,25.90
2023-01-24T02:21:01.870Z,27.73
2023-01-24T02:23:44.351Z,25.58
2023-01-24T02:26:14.382Z,26.30
2023-01-24T02:28:47.997Z,26.42
2023-01-24T02:31:15.626Z,23.98
2023-01-24T02:33:42.956Z,25.60
2023-01-24T02:36:18.884Z,24.98
2023-01-24T02:38:52.745Z,24.85
2023-01-24T02:41:25.984Z,24.75
2023-01-24T02:43:55.961Z,24.58
2023-01-24T02:46:22.886Z,25.23
2023-01-24T02:48:52.779Z,25.58
2023-01-24T02:51:38.104Z,25.67
2023-01-24T02:54:05.220Z,23.88
2023-01-24T02:56:50.879Z,23.48
2023-01-24T02:59:18.194Z,23.65
2023-01-24T03:01:48.221Z,24.75
2023-01-24T03:04:16.994Z,23.95
2023-01-24T03:06:44.002Z,22.67
2023-01-24T03:09:20.143Z,23.52
2023-01-24T03:11:51.457Z,23.73
2023-01-24T03:14:37.345Z,24.42
2023-01-24T03:17:23.192Z,22.73
2023-01-24T03:20:08.963Z,23.65
2023-01-24T03:22:54.478Z,24.50
2023-01-24T03:25:40.267Z,24.63
2023-01-24T03:28:26.013Z,22.85
2023-01-24T03:31:13.636Z,22.95
2023-01-24T03:33:59.360Z,23.73
2023-01-24T03:36:33.049Z,21.58
2023-01-24T03:39:20.619Z,22.70
2023-01-24T03:41:47.913Z,21.98
2023-01-24T03:44:14.843Z,21.90
2023-01-24T03:46:42.699Z,20.00
2023-01-24T03:49:12.495Z,20.52
2023-01-24T03:51:58.644Z,20.98
2023-01-24T03:54:26.188Z,20.65
2023-01-24T03:57:03.250Z,19.38
2023-01-24T03:59:30.367Z,21.02
2023-01-24T04:01:57.896Z,19.95
2023-01-24T04:04:48.113Z,22.80
2023-01-24T04:07:26.206Z,20.98
2023-01-24T04:10:01.653Z,22.60
2023-01-24T04:12:33.438Z,21.40
2023-01-24T04:15:01.355Z,21.40
2023-01-24T04:17:29.086Z,22.90
2023-01-24T04:19:56.654Z,20.25
2023-01-24T04:22:26.147Z,21.63
2023-01-24T04:24:55.686Z,20.65
2023-01-24T04:27:25.553Z,19.85
2023-01-24T04:30:10.578Z,21.60
2023-01-24T04:32:57.806Z,21.42
2023-01-24T04:35:29.049Z,20.13
2023-01-24T04:38:01.906Z,19.65
2023-01-24T04:41:02.118Z,19.67
2023-01-24T04:43:35.568Z,18.75
2023-01-24T04:46:03.100Z,20.92
2023-01-24T04:48:49.672Z,20.02
2023-01-24T04:51:16.872Z,19.50
2023-01-24T04:53:45.671Z,20.25
2023-01-24T04:56:15.493Z,19.73
2023-01-24T04:58:42.543Z,19.60
2023-01-24T05:01:09.888Z,18.70
2023-01-24T05:03:48.299Z,18.20
2023-01-24T05:06:15.475Z,20.17
2023-01-24T05:08:42.372Z,17.67
2023-01-24T05:11:09.836Z,19.63
2023-01-24T05:13:43.708Z,17.77
2023-01-24T05:16:10.995Z,18.83
2023-01-24T05:18:38.028Z,20.52
2023-01-24T05:21:11.173Z,19.48
2023-01-24T05:23:39.356Z,16.83
2023-01-24T05:26:07.208Z,18.13
2023-01-24T05:28:35.115Z,17.95
2023-01-24T05:31:05.143Z,17.38
2023-01-24T05:33:32.432Z,18.10
2023-01-24T05:36:07.566Z,18.05
2023-01-24T05:38:37.133Z,17.45
2023-01-24T05:41:10.203Z,16.85
2023-01-24T05:43:39.001Z,17.52
2023-01-24T05:46:26.801Z,17.02
2023-01-24T05:49:01.187Z,16.27
2023-01-24T05:51:28.422Z,17.60
2023-01-24T05:53:55.703Z,19.27
2023-01-24T05:56:45.467Z,18.20
2023-01-24T05:59:14.620Z,17.33
2023-01-24T06:01:41.966Z,18.65
2023-01-24T06:04:09.952Z,18.15
2023-01-24T06:06:37.215Z,18.00
2023-01-24T06:09:04.340Z,17.60
2023-01-24T06:11:34.279Z,17.17
2023-01-24T06:14:12.653Z,16.77
2023-01-24T06:16:40.447Z,18.17
2023-01-24T06:19:09.677Z,18.15
2023-01-24T06:21:45.568Z,17.10
2023-01-24T06:24:18.421Z,17.13
2023-01-24T06:26:55.822Z,17.58
2023-01-24T06:29:23.528Z,18.60
2023-01-24T06:31:59.350Z,19.15
2023-01-24T06:34:52.050Z,17.58
2023-01-24T06:37:43.635Z,16.40
2023-01-24T06:40:13.047Z,17.15
2023-01-24T06:42:40.525Z,17.75
2023-01-24T06:45:08.264Z,17.60
2023-01-24T06:47:35.760Z,18.00
2023-01-24T06:50:03.176Z,18.38
2023-01-24T06:52:30.433Z,17.77
2023-01-24T06:54:57.360Z,18.42
2023-01-24T06:57:24.479Z,19.67
2023-01-24T06:59:51.373Z,18.17
2023-01-24T07:02:18.556Z,20.00
2023-01-24T07:04:45.571Z,19.10
2023-01-24T07:07:12.718Z,18.13
2023-01-24T07:09:39.670Z,18.45
2023-01-24T07:12:06.919Z,18.83
2023-01-24T07:14:34.078Z,17.73
2023-01-24T07:17:02.507Z,19.00
2023-01-24T07:19:30.053Z,18.73
2023-01-24T07:21:57.996Z,20.17
2023-01-24T07:24:30.595Z,19.60
2023-01-24T07:26:58.545Z,19.65
2023-01-24T07:29:25.618Z,19.42
2023-01-24T07:31:53.860Z,19.65
2023-01-24T07:34:21.215Z,19.63
2023-01-24T07:36:48.938Z,18.25
2023-01-24T07:39:16.692Z,21.58
2023-01-24T07:41:45.056Z,18.13
2023-01-24T07:44:14.327Z,20.02
2023-01-24T07:46:41.576Z,18.00
2023-01-24T07:49:08.643Z,18.55
2023-01-24T07:51:35.857Z,18.63
2023-01-24T07:54:03.385Z,18.77
2023-01-24T07:56:30.784Z,19.30
2023-01-24T07:58:58.756Z,20.13
2023-01-24T08:01:26.752Z,20.13
2023-01-24T08:03:58.418Z,19.88
2023-01-24T08:06:26.017Z,17.73
2023-01-24T08:08:52.991Z,19.80
2023-01-24T08:11:20.326Z,19.27
2023-01-24T08:13:47.919Z,19.13
2023-01-24T08:16:15.119Z,19.13
2023-01-24T08:18:42.261Z,19.08
2023-01-24T08:21:09.410Z,18.13
2023-01-24T08:23:36.681Z,18.35
2023-01-24T08:26:06.819Z,19.40
2023-01-24T08:28:34.931Z,19.45
2023-01-24T08:31:02.392Z,19.42
2023-01-24T08:33:29.386Z,19.38
2023-01-24T08:35:56.589Z,21.17
2023-01-24T08:38:24.952Z,19.60
2023-01-24T08:40:52.280Z,19.60
2023-01-24T08:43:19.229Z,20.15
2023-01-24T08:45:46.405Z,20.00
2023-01-24T08:48:13.547Z,19.90
2023-01-24T08:50:40.792Z,20.35
2023-01-24T08:53:07.724Z,20.45
2023-01-24T08:55:36.862Z,20.45
2023-01-24T08:58:04.995Z,21.55
2023-01-24T09:00:32.603Z,21.75
2023-01-24T09:03:01.721Z,20.98
2023-01-24T09:05:30.893Z,21.75
2023-01-24T09:08:00.058Z,23.92
2023-01-24T09:10:27.867Z,18.23
2023-01-24T09:12:54.905Z,20.13
2023-01-24T09:15:22.589Z,18.83
2023-01-24T09:17:50.003Z,20.20
2023-01-24T09:20:17.839Z,21.13
2023-01-24T09:22:44.778Z,22.38
2023-01-24T09:25:12.780Z,20.75
2023-01-24T09:27:43.099Z,22.10
2023-01-24T09:30:11.241Z,22.38
2023-01-24T09:32:38.160Z,22.13
2023-01-24T09:35:05.783Z,22.15
2023-01-24T09:37:32.731Z,22.38
2023-01-24T09:40:00.865Z,21.40
2023-01-24T09:42:40.878Z,21.48
2023-01-24T09:45:08.258Z,19.90
2023-01-24T09:47:47.143Z,19.05
2023-01-24T09:50:25.335Z,21.23
2023-01-24T09:52:57.983Z,22.10
2023-01-24T09:55:42.577Z,22.20
2023-01-24T09:58:38.508Z,23.90
2023-01-24T10:01:14.484Z,22.73
2023-01-24T10:03:43.256Z,21.98
2023-01-24T10:06:24.389Z,20.55
2023-01-24T10:08:54.440Z,22.17
2023-01-24T10:11:43.802Z,25.02
2023-01-24T10:14:24.157Z,26.58
2023-01-24T10:17:10.163Z,25.08
2023-01-24T10:19:53.998Z,24.38
2023-01-24T10:23:00.492Z,24.23
2023-01-24T10:25:34.679Z,22.65
2023-01-24T10:28:04.102Z,23.02
2023-01-24T10:30:50.619Z,22.45
2023-01-24T10:33:20.076Z,20.92
2023-01-24T10:35:57.847Z,21.65
2023-01-24T10:38:26.972Z,21.75
2023-01-24T10:41:14.055Z,23.15
2023-01-24T10:43:45.529Z,22.58
2023-01-24T10:46:38.335Z,22.05
2023-01-24T10:49:13.219Z,23.63
2023-01-24T10:51:41.079Z,21.52
2023-01-24T10:54:21.815Z,21.67
2023-01-24T10:56:49.310Z,21.38
2023-01-24T10:59:17.025Z,21.25
2023-01-24T11:01:49.353Z,21.20
2023-01-24T11:04:27.949Z,23.30
2023-01-24T11:06:55.325Z,23.38
2023-01-24T11:09:30.823Z,21.58
2023-01-24T11:11:59.836Z,22.70
2023-01-24T11:14:31.398Z,20.33
2023-01-24T11:17:01.216Z,20.40
2023-01-24T11:19:33.103Z,18.65
2023-01-24T11:22:03.205Z,19.45
2023-01-24T11:24:31.234Z,17.70
2023-01-24T11:27:14.405Z,19.17
2023-01-24T11:29:41.615Z,18.80
2023-01-24T11:32:32.835Z,19.15
2023-01-24T11:35:26.261Z,18.83
2023-01-24T11:38:01.016Z,19.70
2023-01-24T11:40:43.681Z,18.83
2023-01-24T11:43:43.026Z,19.10
2023-01-24T11:46:18.153Z,20.08
2023-01-24T11:48:45.029Z,20.45
2023-01-24T11:51:33.986Z,19.20
2023-01-24T11:54:18.894Z,19.67
2023-01-24T11:57:48.604Z,20.52
2023-01-24T12:00:52.515Z,19.05
2023-01-24T12:03:38.235Z,19.48
2023-01-24T12:06:40.642Z,19.50
2023-01-24T12:09:16.911Z,18.60
2023-01-24T12:12:28.485Z,19.85
2023-01-24T12:15:12.104Z,19.63
2023-01-24T12:17:57.443Z,19.95
2023-01-24T12:20:57.793Z,19.27
2023-01-24T12:23:36.874Z,20.85
2023-01-24T12:26:11.536Z,19.67
2023-01-24T12:28:52.335Z,18.90
2023-01-24T12:31:31.393Z,19.20
2023-01-24T12:34:28.227Z,19.85
2023-01-24T12:37:00.688Z,18.23
2023-01-24T12:39:37.090Z,18.80
2023-01-24T12:42:17.120Z,17.70
2023-01-24T12:45:08.365Z,18.52
2023-01-24T12:48:16.116Z,16.85
2023-01-24T12:51:17.293Z,17.02
2023-01-24T12:53:57.303Z,16.13
2023-01-24T12:56:32.095Z,14.95
2023-01-24T12:59:00.167Z,16.10
2023-01-24T13:01:46.630Z,16.50
2023-01-24T13:04:24.280Z,16.08
2023-01-24T13:07:29.797Z,16.35
2023-01-24T13:10:10.925Z,16.33
2023-01-24T13:12:38.887Z,16.38
2023-01-24T13:15:26.197Z,16.17
2023-01-24T13:18:28.559Z,16.10
2023-01-24T13:21:11.967Z,17.50
2023-01-24T13:24:08.121Z,19.35
2023-01-24T13:26:58.007Z,19.15
2023-01-24T13:29:48.315Z,19.17
2023-01-24T13:32:17.724Z,18.02
2023-01-24T13:34:48.230Z,18.40
2023-01-24T13:37:24.874Z,16.92
2023-01-24T13:40:15.125Z,16.92
2023-01-24T13:42:43.113Z,18.20
2023-01-24T13:45:30.466Z,18.75
2023-01-24T13:47:59.723Z,17.55
2023-01-24T13:50:28.714Z,19.30
2023-01-24T13:52:58.026Z,19.23
2023-01-24T13:55:25.155Z,19.50
2023-01-24T13:58:07.799Z,19.33
2023-01-24T14:00:57.854Z,18.55
2023-01-24T14:03:37.858Z,18.98
2023-01-24T14:06:09.012Z,18.67
2023-01-24T14:08:38.958Z,19.33
2023-01-24T14:11:05.841Z,19.23
2023-01-24T14:13:48.204Z,19.13
2023-01-24T14:16:34.034Z,20.13
2023-01-24T14:19:16.933Z,19.92
2023-01-24T14:21:53.800Z,19.70
2023-01-24T14:24:35.033Z,19.02
2023-01-24T14:27:15.160Z,20.92
2023-01-24T14:29:45.417Z,18.15
2023-01-24T14:32:26.281Z,22.02
2023-01-24T14:35:18.651Z,21.50
2023-01-24T14:37:47.554Z,18.48
2023-01-24T14:40:35.969Z,20.15
2023-01-24T14:43:06.372Z,20.00
2023-01-24T14:45:35.168Z,20.85
2023-01-24T14:48:08.646Z,21.02
2023-01-24T14:50:38.149Z,19.80
2023-01-24T14:53:25.100Z,21.52
2023-01-24T14:55:54.079Z,21.70
2023-01-24T14:58:24.104Z,21.20
2023-01-24T15:00:55.915Z,21.63
2023-01-24T15:06:08.430Z,17.80
2023-01-24T15:08:35.889Z,19.08
2023-01-24T15:11:07.181Z,20.40
2023-01-24T15:13:44.288Z,19.63
2023-01-24T15:16:24.191Z,19.42
2023-01-24T15:18:55.256Z,21.58
2023-01-24T15:21:40.172Z,21.40
2023-01-24T15:24:20.602Z,19.77
2023-01-24T15:26:48.891Z,20.27
2023-01-24T15:29:39.035Z,21.30
2023-01-24T15:32:31.335Z,21.95
2023-01-24T15:35:23.297Z,18.75
2023-01-24T15:38:04.691Z,17.85
2023-01-24T15:40:32.500Z,22.42
2023-01-24T15:43:19.475Z,19.25
2023-01-24T15:46:13.383Z,20.02
2023-01-24T15:48:40.638Z,20.75
2023-01-24T15:51:32.460Z,21.33
2023-01-24T15:54:00.022Z,19.45
2023-01-24T15:56:35.221Z,19.73
2023-01-24T15:59:02.788Z,19.33
2023-01-24T16:01:31.244Z,20.45
2023-01-24T16:04:12.330Z,18.52
2023-01-24T16:06:39.208Z,18.80
2023-01-24T16:13:33.723Z,18.48
2023-01-24T16:16:05.308Z,20.30
2023-01-24T16:18:33.589Z,19.15
2023-01-24T16:21:01.064Z,20.48
2023-01-24T16:23:28.959Z,18.95
2023-01-24T16:25:57.493Z,20.17
2023-01-24T16:28:27.070Z,19.35
2023-01-24T16:31:00.671Z,18.52
2023-01-24T16:33:28.289Z,19.73
2023-01-24T16:35:55.399Z,18.13
2023-01-24T16:38:23.168Z,18.70
2023-01-24T16:40:50.033Z,17.23
2023-01-24T16:43:20.574Z,17.73
2023-01-24T16:45:49.495Z,16.65
2023-01-24T16:48:17.548Z,19.33
2023-01-24T16:50:46.500Z,18.17
2023-01-24T16:53:15.526Z,15.55
2023-01-24T16:55:42.951Z,16.30
2023-01-24T16:58:12.514Z,15.60
2023-01-24T17:00:39.630Z,15.60
2023-01-24T17:03:06.878Z,15.73
2023-01-24T17:05:33.904Z,17.77
2023-01-24T17:08:01.159Z,15.63
2023-01-24T17:10:28.776Z,15.70
2023-01-24T17:12:56.452Z,16.60
2023-01-24T17:15:23.563Z,17.73
2023-01-24T17:17:50.804Z,18.02
2023-01-24T17:20:17.885Z,18.75
2023-01-24T17:22:45.050Z,18.70
2023-01-24T17:25:11.961Z,19.38
2023-01-24T17:27:39.416Z,18.00
2023-01-24T17:30:07.325Z,18.70
2023-01-24T17:32:37.509Z,18.42
2023-01-24T17:35:04.917Z,20.08
2023-01-24T17:37:32.415Z,19.67
2023-01-24T17:39:59.399Z,18.23
2023-01-24T17:42:26.941Z,19.10
2023-01-24T17:44:53.951Z,18.40
2023-01-24T17:47:21.214Z,18.65
2023-01-24T17:49:48.151Z,19.42
2023-01-24T17:52:15.492Z,18.65
2023-01-24T17:54:42.420Z,19.02
2023-01-24T17:57:09.553Z,17.63
2023-01-24T17:59:36.403Z,18.40
2023-01-24T18:02:03.896Z,18.40
2023-01-24T18:04:31.891Z,18.17
2023-01-24T18:06:59.099Z,18.10
2023-01-24T18:09:28.242Z,19.90
2023-01-24T18:11:55.513Z,19.13
2023-01-24T18:14:22.467Z,18.42
2023-01-24T18:16:51.841Z,18.98
2023-01-24T18:19:18.902Z,19.77
2023-01-24T18:21:46.238Z,20.38
2023-01-24T18:24:13.230Z,20.35
2023-01-24T18:26:40.573Z,18.42
2023-01-24T18:29:07.610Z,20.10
2023-01-24T18:31:35.298Z,19.48
2023-01-24T18:34:02.635Z,20.20
2023-01-24T18:36:30.159Z,18.95
2023-01-24T18:38:57.263Z,18.85
2023-01-24T18:41:27.594Z,18.20
2023-01-24T18:43:58.550Z,17.50
2023-01-24T18:46:26.013Z,18.10
2023-01-24T18:48:53.268Z,17.92
2023-01-24T18:51:21.015Z,17.10
2023-01-24T18:53:51.594Z,15.95
2023-01-24T18:56:18.916Z,18.42
2023-01-24T18:58:47.439Z,16.60
2023-01-24T19:01:20.154Z,16.75
2023-01-24T19:03:47.686Z,16.88
2023-01-24T19:06:15.570Z,16.33
2023-01-24T19:09:00.530Z,19.33
2023-01-24T19:11:32.010Z,19.00
2023-01-24T19:14:00.884Z,19.52
2023-01-24T19:16:28.418Z,19.10
2023-01-24T19:18:56.130Z,17.60
2023-01-24T19:21:24.930Z,19.48
2023-01-24T19:23:51.896Z,18.13
2023-01-24T19:26:19.546Z,18.45
2023-01-24T19:28:46.465Z,18.88
2023-01-24T19:31:13.813Z,20.40
2023-01-24T19:33:40.650Z,18.98
2023-01-24T19:36:10.317Z,18.38
2023-01-24T19:38:37.515Z,18.17
2023-01-24T19:41:06.954Z,18.83
2023-01-24T19:43:35.843Z,16.60
2023-01-24T19:46:12.374Z,19.00
2023-01-24T19:48:40.280Z,17.30
2023-01-24T19:51:10.083Z,18.75
2023-01-24T19:53:37.766Z,18.65
2023-01-24T19:56:08.003Z,18.42
2023-01-24T19:58:35.359Z,19.17
2023-01-24T20:01:28.729Z,18.92
2023-01-24T20:04:06.213Z,19.92
2023-01-24T20:06:37.867Z,20.50
2023-01-24T20:09:05.611Z,21.13
2023-01-24T20:11:33.346Z,21.25
2023-01-24T20:14:00.357Z,21.27
2023-01-24T20:16:29.317Z,21.77
2023-01-24T20:18:59.174Z,23.02
2023-01-24T20:21:29.286Z,23.67
2023-01-24T20:23:58.693Z,21.25
2023-01-24T20:26:27.178Z,21.20
2023-01-24T20:28:54.150Z,22.70
2023-01-24T20:31:25.435Z,23.05
2023-01-24T20:33:52.465Z,23.65
2023-01-24T20:36:19.890Z,23.83
2023-01-24T20:38:47.775Z,25.92
2023-01-24T20:41:17.780Z,24.15
2023-01-24T20:43:46.419Z,25.15
2023-01-24T20:46:23.895Z,25.70
2023-01-24T20:48:55.941Z,22.48
2023-01-24T20:51:29.008Z,25.77
2023-01-24T20:53:57.687Z,20.30
2023-01-24T20:56:25.020Z,17.67
2023-01-24T20:58:54.079Z,18.17
2023-01-24T21:01:23.050Z,20.02
2023-01-24T21:03:50.355Z,19.15
2023-01-24T21:06:20.590Z,20.13
2023-01-24T21:08:49.111Z,18.35
2023-01-24T21:11:21.109Z,11.68
2023-01-24T21:13:56.686Z,17.27
2023-01-24T21:16:26.271Z,17.73
2023-01-24T21:18:56.586Z,14.35
2023-01-24T21:21:26.013Z,12.47
2023-01-24T21:23:53.396Z,14.25
2023-01-24T21:26:20.612Z,16.67
2023-01-24T21:28:52.986Z,14.32
2023-01-24T21:31:22.498Z,16.23
2023-01-24T21:33:50.735Z,15.15
2023-01-24T21:36:20.678Z,16.50
2023-01-24T21:38:49.334Z,14.82
2023-01-24T21:41:37.531Z,16.10
2023-01-24T21:44:06.045Z,10.93
2023-01-24T21:46:33.629Z,12.73
2023-01-24T21:49:06.865Z,8.95
2023-01-24T21:51:38.471Z,6.63
2023-01-24T21:54:26.773Z,8.75
2023-01-24T21:57:24.352Z,13.00
2023-01-24T21:59:57.963Z,13.10
2023-01-24T22:02:28.153Z,14.32
2023-01-24T22:04:55.703Z,13.70
2023-01-24T22:07:25.100Z,12.95
2023-01-24T22:09:53.214Z,14.65
2023-01-24T22:12:20.828Z,13.18
2023-01-24T22:14:48.167Z,12.63
2023-01-24T22:17:18.579Z,11.80
2023-01-24T22:19:48.872Z,13.20
2023-01-24T22:22:38.345Z,12.45
2023-01-24T22:25:11.098Z,12.68
2023-01-24T22:27:38.548Z,11.55
2023-01-24T22:30:22.580Z,13.20
2023-01-24T22:32:51.697Z,12.50
2023-01-24T22:35:24.090Z,12.15
2023-01-24T22:37:54.455Z,11.80
2023-01-24T22:40:22.434Z,10.40
2023-01-24T22:42:50.707Z,12.23
2023-01-24T22:45:18.792Z,12.27
2023-01-24T22:47:46.127Z,13.15
2023-01-24T22:50:13.338Z,13.50
2023-01-24T22:52:40.522Z,13.65
2023-01-24T22:55:08.446Z,14.20
2023-01-24T22:57:35.866Z,13.68
2023-01-24T23:00:05.163Z,13.10
2023-01-24T23:02:33.049Z,13.35
2023-01-24T23:05:00.193Z,13.18
2023-01-24T23:07:27.419Z,14.43
2023-01-24T23:09:54.466Z,13.00
2023-01-24T23:12:39.897Z,13.57
2023-01-24T23:15:25.625Z,13.50
2023-01-24T23:17:52.958Z,12.60
2023-01-24T23:20:38.281Z,12.35
2023-01-24T23:23:05.441Z,13.27
2023-01-24T23:25:32.308Z,12.60
2023-01-24T23:27:59.467Z,12.52
2023-01-24T23:30:50.139Z,12.68
2023-01-24T23:33:34.359Z,7.38
2023-01-24T23:36:02.121Z,10.73
2023-01-24T23:38:32.068Z,12.20
2023-01-24T23:40:58.997Z,10.57
2023-01-24T23:43:26.155Z,10.35
2023-01-24T23:45:53.078Z,9.93
2023-01-24T23:48:22.686Z,8.23
2023-01-24T23:51:00.364Z,6.60
2023-01-24T23:53:28.774Z,8.15
2023-01-24T23:55:56.419Z,7.63
2023-01-24T23:58:24.322Z,10.25
